createdAt,value
2018-01-25T00:00:38.634Z,4.47
2018-01-25T00:03:13.155Z,0.80
2018-01-25T00:05:47.613Z,0.77
2018-01-25T00:08:22.079Z,1.67
2018-01-25T00:10:56.450Z,1.05
2018-01-25T00:13:30.910Z,0.90
2018-01-25T00:16:05.400Z,2.90
2018-01-25T00:18:39.774Z,1.73
2018-01-25T00:21:14.106Z,0.80
2018-01-25T00:23:48.558Z,1.12
2018-01-25T00:26:23.009Z,1.40
2018-01-25T00:28:57.622Z,1.75
2018-01-25T00:31:32.078Z,0.90
2018-01-25T00:34:06.384Z,1.23
2018-01-25T00:36:40.901Z,1.70
2018-01-25T00:39:15.326Z,1.40
2018-01-25T00:41:49.635Z,4.47
2018-01-25T00:44:23.995Z,1.73
2018-01-25T00:46:58.524Z,1.40
2018-01-25T00:49:32.915Z,1.37
2018-01-25T00:52:07.354Z,0.70
2018-01-25T00:54:41.693Z,1.25
2018-01-25T00:57:16.148Z,2.17
2018-01-25T00:59:50.597Z,1.05
2018-01-25T01:02:25.056Z,1.40
2018-01-25T01:04:59.437Z,2.10
2018-01-25T01:07:33.885Z,0.90
2018-01-25T01:10:08.995Z,2.00
2018-01-25T01:12:43.462Z,4.40
2018-01-25T01:15:17.924Z,1.65
2018-01-25T01:17:53.092Z,1.40
2018-01-25T01:20:27.524Z,1.73
2018-01-25T01:23:02.031Z,2.45
2018-01-25T01:25:36.503Z,1.75
2018-01-25T01:28:11.028Z,2.20
2018-01-25T01:30:45.549Z,2.00
2018-01-25T01:33:20.058Z,1.25
2018-01-25T01:35:54.421Z,1.45
2018-01-25T01:38:29.714Z,1.50
2018-01-25T01:41:04.258Z,3.05
2018-01-25T01:43:38.610Z,1.60
2018-01-25T01:46:13.088Z,2.15
2018-01-25T01:48:47.601Z,3.25
2018-01-25T01:51:22.025Z,5.03
2018-01-25T01:53:56.523Z,1.05
2018-01-25T01:56:31.714Z,0.98
2018-01-25T01:59:06.205Z,1.55
2018-01-25T02:01:40.627Z,1.75
2018-01-25T02:04:14.955Z,2.25
2018-01-25T02:06:49.415Z,2.03
2018-01-25T02:09:23.894Z,2.15
2018-01-25T02:11:58.229Z,3.20
2018-01-25T02:14:32.660Z,3.35
2018-01-25T02:17:07.776Z,1.85
2018-01-25T02:19:43.008Z,4.43
2018-01-25T02:22:17.472Z,2.62
2018-01-25T02:24:51.776Z,3.25
2018-01-25T02:27:26.132Z,3.62
2018-01-25T02:30:00.621Z,6.28
2018-01-25T02:32:35.111Z,4.00
2018-01-25T02:35:09.467Z,2.95
2018-01-25T02:37:43.791Z,3.42
2018-01-25T02:40:19.113Z,1.87
2018-01-25T02:42:53.456Z,2.42
2018-01-25T02:45:28.113Z,2.53
2018-01-25T02:48:02.573Z,3.90
2018-01-25T02:50:37.950Z,3.75
2018-01-25T02:53:12.293Z,2.62
2018-01-25T02:55:46.767Z,3.60
2018-01-25T02:58:21.236Z,3.10
2018-01-25T03:00:55.711Z,2.37
2018-01-25T03:03:30.298Z,4.82
2018-01-25T03:06:04.729Z,3.67
2018-01-25T03:08:39.959Z,4.80
2018-01-25T03:11:14.258Z,2.95
2018-01-25T03:13:48.744Z,3.20
2018-01-25T03:16:23.181Z,3.17
2018-01-25T03:18:57.689Z,2.17
2018-01-25T03:21:32.167Z,3.20
2018-01-25T03:24:06.562Z,2.92
2018-01-25T03:26:41.669Z,4.55
2018-01-25T03:29:15.986Z,3.45
2018-01-25T03:31:50.445Z,1.73
2018-01-25T03:34:24.796Z,3.15
2018-01-25T03:36:59.166Z,2.62
2018-01-25T03:39:33.677Z,4.55
2018-01-25T03:42:08.138Z,4.07
2018-01-25T03:44:42.588Z,3.03
2018-01-25T03:47:17.111Z,2.95
2018-01-25T03:49:51.479Z,2.40
2018-01-25T03:52:25.838Z,4.47
2018-01-25T03:55:00.295Z,3.95
2018-01-25T03:57:34.769Z,2.40
2018-01-25T04:00:10.105Z,3.78
2018-01-25T04:02:45.341Z,7.57
2018-01-25T04:05:19.684Z,2.10
2018-01-25T04:07:54.149Z,0.90
2018-01-25T04:10:29.391Z,2.83
2018-01-25T04:13:03.901Z,2.05
2018-01-25T04:15:38.369Z,4.43
2018-01-25T04:18:12.815Z,3.30
2018-01-25T04:20:47.266Z,2.08
2018-01-25T04:23:21.585Z,5.07
2018-01-25T04:25:55.916Z,5.53
2018-01-25T04:28:30.469Z,6.18
2018-01-25T04:31:04.954Z,5.05
2018-01-25T04:33:39.401Z,2.58
2018-01-25T04:36:14.617Z,5.05
2018-01-25T04:38:49.080Z,3.83
2018-01-25T04:41:23.549Z,2.30
2018-01-25T04:43:57.882Z,1.92
2018-01-25T04:46:33.108Z,3.65
2018-01-25T04:49:07.569Z,2.58
2018-01-25T04:51:42.025Z,2.08
2018-01-25T04:54:16.497Z,2.35
2018-01-25T04:56:50.964Z,6.15
2018-01-25T04:59:25.421Z,0.98
2018-01-25T05:01:59.773Z,2.55
2018-01-25T05:04:34.249Z,7.35
2018-01-25T05:07:08.689Z,3.25
2018-01-25T05:09:43.912Z,2.08
2018-01-25T05:12:18.366Z,2.40
2018-01-25T05:14:53.593Z,2.60
2018-01-25T05:20:25.623Z,2.53
2018-01-25T05:23:00.258Z,2.05
2018-01-25T05:25:34.776Z,1.08
2018-01-25T05:28:10.097Z,4.47
2018-01-25T05:30:44.606Z,6.15
2018-01-25T05:33:19.087Z,6.25
2018-01-25T05:35:53.606Z,3.90
2018-01-25T05:38:28.837Z,5.60
2018-01-25T05:41:03.384Z,6.47
2018-01-25T05:43:38.499Z,4.55
2018-01-25T05:46:13.747Z,14.40
2018-01-25T05:48:49.120Z,2.40
2018-01-25T05:51:23.605Z,3.35
2018-01-25T05:53:57.949Z,8.90
2018-01-25T05:56:32.524Z,3.05
2018-01-25T05:59:07.007Z,4.30
2018-01-25T06:01:41.553Z,5.53
2018-01-25T06:04:16.822Z,5.93
2018-01-25T06:06:51.243Z,3.45
2018-01-25T06:09:25.708Z,8.13
2018-01-25T06:12:00.110Z,3.95
2018-01-25T06:14:34.628Z,6.15
2018-01-25T06:17:09.250Z,3.40
2018-01-25T06:19:43.808Z,6.95
2018-01-25T06:22:18.183Z,10.32
2018-01-25T06:24:52.691Z,2.55
2018-01-25T06:27:27.153Z,16.30
2018-01-25T06:30:01.867Z,4.30
2018-01-25T06:32:36.412Z,12.13
2018-01-25T06:35:11.016Z,8.40
2018-01-25T06:37:45.512Z,9.15
2018-01-25T06:40:20.057Z,3.65
2018-01-25T06:42:54.530Z,5.82
2018-01-25T06:45:29.085Z,2.50
2018-01-25T06:48:03.669Z,6.93
2018-01-25T06:50:38.233Z,9.77
2018-01-25T06:53:12.770Z,11.68
2018-01-25T06:55:47.140Z,7.82
2018-01-25T06:58:21.862Z,2.97
2018-01-25T07:00:56.239Z,5.75
2018-01-25T07:03:30.837Z,7.57
2018-01-25T07:06:05.340Z,4.53
2018-01-25T07:08:39.866Z,4.43
2018-01-25T07:11:14.560Z,5.32
2018-01-25T07:13:49.128Z,6.70
2018-01-25T07:16:23.652Z,3.35
2018-01-25T07:18:59.014Z,2.70
2018-01-25T07:21:33.464Z,4.30
2018-01-25T07:24:07.873Z,5.87
2018-01-25T07:26:42.372Z,3.55
2018-01-25T07:29:16.961Z,2.72
2018-01-25T07:31:51.713Z,4.95
2018-01-25T07:34:26.181Z,6.60
2018-01-25T07:37:00.648Z,5.18
2018-01-25T07:39:35.772Z,8.57
2018-01-25T07:42:10.280Z,3.22
2018-01-25T07:44:44.712Z,11.23
2018-01-25T07:47:19.197Z,10.90
2018-01-25T07:49:53.625Z,3.00
2018-01-25T07:52:28.218Z,3.72
2018-01-25T07:55:02.683Z,4.35
2018-01-25T07:57:42.935Z,2.47
2018-01-25T08:00:17.394Z,8.80
2018-01-25T08:02:51.789Z,5.47
2018-01-25T08:05:26.332Z,10.07
2018-01-25T08:08:01.550Z,10.20
2018-01-25T08:10:35.945Z,4.70
2018-01-25T08:13:16.188Z,7.72
2018-01-25T08:15:50.548Z,8.00
2018-01-25T08:18:25.046Z,5.10
2018-01-25T08:21:00.317Z,4.82
2018-01-25T08:23:34.725Z,4.78
2018-01-25T08:26:09.248Z,12.30
2018-01-25T08:28:43.649Z,4.43
2018-01-25T08:31:18.101Z,4.07
2018-01-25T08:33:53.329Z,3.00
2018-01-25T08:36:28.571Z,10.32
2018-01-25T08:39:03.090Z,8.23
2018-01-25T08:41:37.616Z,12.48
2018-01-25T08:44:12.187Z,10.30
2018-01-25T08:46:47.441Z,3.35
2018-01-25T08:49:21.999Z,6.85
2018-01-25T08:51:56.498Z,6.00
2018-01-25T08:54:31.654Z,4.97
2018-01-25T08:57:06.068Z,4.25
2018-01-25T08:59:40.398Z,3.22
2018-01-25T09:02:14.761Z,5.97
2018-01-25T09:04:49.316Z,6.18
2018-01-25T09:07:23.856Z,14.90
2018-01-25T09:09:58.347Z,5.68
2018-01-25T09:12:32.921Z,2.92
2018-01-25T09:15:07.402Z,6.30
2018-01-25T09:17:42.566Z,2.37
2018-01-25T09:20:17.123Z,5.45
2018-01-25T09:22:52.637Z,9.40
2018-01-25T09:25:27.148Z,4.68
2018-01-25T09:28:01.769Z,5.60
2018-01-25T09:30:36.281Z,8.23
2018-01-25T09:33:11.036Z,4.45
2018-01-25T09:35:45.500Z,7.62
2018-01-25T09:38:20.082Z,3.10
2018-01-25T09:40:54.592Z,3.75
2018-01-25T09:43:28.986Z,2.50
2018-01-25T09:46:03.489Z,9.27
2018-01-25T09:48:37.979Z,5.37
2018-01-25T09:51:13.168Z,3.40
2018-01-25T09:53:47.684Z,4.97
2018-01-25T10:01:57.725Z,16.70
2018-01-25T10:04:32.848Z,6.12
2018-01-25T10:07:08.141Z,10.63
2018-01-25T10:09:43.486Z,7.43
2018-01-25T10:12:18.616Z,12.00
2018-01-25T10:14:53.029Z,10.00
2018-01-25T10:17:27.606Z,14.55
2018-01-25T10:20:02.156Z,8.50
2018-01-25T10:22:36.710Z,5.00
2018-01-25T10:25:11.253Z,8.25
2018-01-25T10:27:46.479Z,5.47
2018-01-25T10:30:20.856Z,6.87
2018-01-25T10:32:55.337Z,4.18
2018-01-25T10:35:29.640Z,6.80
2018-01-25T10:38:04.168Z,7.00
2018-01-25T10:40:38.702Z,12.07
2018-01-25T10:43:13.322Z,7.93
2018-01-25T10:45:48.583Z,4.53
2018-01-25T10:48:23.904Z,5.32
2018-01-25T10:50:58.307Z,13.15
2018-01-25T10:53:33.548Z,6.20
2018-01-25T10:56:08.058Z,4.82
2018-01-25T10:58:43.438Z,6.03
2018-01-25T11:04:18.677Z,6.03
2018-01-25T11:06:53.196Z,14.73
2018-01-25T11:09:27.756Z,4.97
2018-01-25T11:12:02.221Z,4.70
2018-01-25T11:14:37.613Z,11.85
2018-01-25T11:17:12.068Z,7.10
2018-01-25T11:19:46.626Z,2.47
2018-01-25T11:22:21.350Z,9.02
2018-01-25T11:24:55.872Z,8.10
2018-01-25T11:27:30.272Z,6.28
2018-01-25T11:30:04.825Z,11.98
2018-01-25T11:32:39.853Z,6.50
2018-01-25T11:35:14.368Z,7.60
2018-01-25T11:37:48.872Z,5.45
2018-01-25T11:40:23.206Z,5.15
2018-01-25T11:42:57.725Z,10.75
2018-01-25T11:45:32.211Z,12.10
2018-01-25T11:48:07.468Z,8.10
2018-01-25T11:50:42.013Z,9.05
2018-01-25T11:53:16.403Z,7.90
2018-01-25T11:55:50.966Z,4.10
2018-01-25T11:58:25.341Z,6.43
2018-01-25T12:00:59.866Z,7.22
2018-01-25T12:03:34.428Z,6.45
2018-01-25T12:06:09.034Z,14.38
2018-01-25T12:08:43.543Z,7.20
2018-01-25T12:11:17.903Z,4.80
2018-01-25T12:13:53.208Z,12.40
2018-01-25T12:16:27.672Z,7.72
2018-01-25T12:19:02.217Z,10.52
2018-01-25T12:21:36.899Z,8.57
2018-01-25T12:24:11.248Z,8.65
2018-01-25T12:26:45.765Z,8.55
2018-01-25T12:29:20.226Z,7.10
2018-01-25T12:31:54.782Z,4.15
2018-01-25T12:34:29.419Z,12.25
2018-01-25T12:37:03.877Z,12.70
2018-01-25T12:39:38.343Z,7.25
2018-01-25T12:42:12.926Z,6.18
2018-01-25T12:44:47.541Z,13.48
2018-01-25T12:47:22.118Z,10.43
2018-01-25T12:49:56.484Z,9.43
2018-01-25T12:52:30.973Z,9.18
2018-01-25T12:55:05.477Z,15.13
2018-01-25T12:57:40.013Z,12.23
2018-01-25T13:00:14.573Z,12.15
2018-01-25T13:02:49.140Z,15.52
2018-01-25T13:05:24.345Z,7.75
2018-01-25T13:07:58.871Z,14.00
2018-01-25T13:10:33.233Z,12.50
2018-01-25T13:13:07.738Z,13.20
2018-01-25T13:15:42.241Z,11.30
2018-01-25T13:18:16.780Z,17.70
2018-01-25T13:20:51.380Z,11.80
2018-01-25T13:23:25.965Z,13.27
2018-01-25T13:26:00.407Z,13.07
2018-01-25T13:28:34.918Z,12.55
2018-01-25T13:31:09.525Z,10.88
2018-01-25T13:33:43.832Z,20.40
2018-01-25T13:36:18.316Z,13.70
2018-01-25T13:38:52.902Z,17.23
2018-01-25T13:41:27.421Z,15.27
2018-01-25T13:44:01.828Z,13.05
2018-01-25T13:46:36.394Z,13.30
2018-01-25T13:49:10.908Z,10.25
2018-01-25T13:51:45.324Z,4.15
2018-01-25T13:54:20.586Z,16.70
2018-01-25T13:56:55.107Z,15.40
2018-01-25T13:59:29.490Z,15.38
2018-01-25T14:02:04.105Z,16.73
2018-01-25T14:04:38.646Z,11.25
2018-01-25T14:07:13.164Z,19.12
2018-01-25T14:09:47.728Z,12.32
2018-01-25T14:12:22.085Z,9.52
2018-01-25T14:14:56.609Z,18.92
2018-01-25T14:17:31.147Z,11.20
2018-01-25T14:20:05.660Z,18.42
2018-01-25T14:22:40.140Z,9.40
2018-01-25T14:25:14.653Z,17.08
2018-01-25T14:27:49.104Z,12.00
2018-01-25T14:30:23.560Z,17.70
2018-01-25T14:32:58.117Z,14.25
2018-01-25T14:35:32.500Z,13.52
2018-01-25T14:38:07.764Z,15.07
2018-01-25T14:40:42.253Z,15.65
2018-01-25T14:43:16.801Z,12.52
2018-01-25T14:45:51.379Z,11.40
2018-01-25T14:48:25.976Z,12.15
2018-01-25T14:51:00.394Z,11.82
2018-01-25T14:53:34.950Z,13.98
2018-01-25T14:56:09.410Z,11.60
2018-01-25T14:58:43.908Z,10.40
2018-01-25T15:01:18.320Z,19.15
2018-01-25T15:03:52.751Z,5.75
2018-01-25T15:06:27.328Z,10.48
2018-01-25T15:09:02.540Z,11.50
2018-01-25T15:11:37.662Z,14.50
2018-01-25T15:14:12.111Z,11.20
2018-01-25T15:16:46.635Z,19.15
2018-01-25T15:19:21.196Z,11.20
2018-01-25T15:21:55.758Z,14.93
2018-01-25T15:24:30.273Z,15.95
2018-01-25T15:27:04.811Z,14.23
2018-01-25T15:29:39.630Z,14.27
2018-01-25T15:32:14.043Z,14.25
2018-01-25T15:34:49.333Z,15.88
2018-01-25T15:37:24.649Z,14.87
2018-01-25T15:39:59.084Z,18.25
2018-01-25T15:42:33.422Z,20.90
2018-01-25T15:45:07.907Z,23.80
2018-01-25T15:47:42.431Z,17.83
2018-01-25T15:50:16.897Z,17.37
2018-01-25T15:52:51.915Z,24.40
2018-01-25T15:55:27.224Z,13.55
2018-01-25T15:58:01.696Z,15.15
2018-01-25T16:00:36.200Z,17.55
2018-01-25T16:03:10.694Z,15.05
2018-01-25T16:05:45.195Z,17.37
2018-01-25T16:08:19.864Z,15.43
2018-01-25T16:10:54.459Z,17.00
2018-01-25T16:13:28.917Z,11.10
2018-01-25T16:16:04.185Z,13.27
2018-01-25T16:18:38.780Z,13.48
2018-01-25T16:21:13.373Z,15.07
2018-01-25T16:23:47.794Z,16.23
2018-01-25T16:26:22.348Z,16.45
2018-01-25T16:28:56.909Z,12.95
2018-01-25T16:31:31.310Z,21.10
2018-01-25T16:34:05.857Z,20.67
2018-01-25T16:36:40.393Z,13.88
2018-01-25T16:39:14.766Z,11.23
2018-01-25T16:41:49.335Z,20.27
2018-01-25T16:44:23.924Z,11.90
2018-01-25T16:46:59.774Z,15.60
2018-01-25T16:49:34.330Z,18.52
2018-01-25T16:52:08.897Z,13.52
2018-01-25T16:54:43.532Z,16.48
2018-01-25T16:57:17.983Z,12.00
2018-01-25T16:59:52.389Z,14.07
2018-01-25T17:02:26.925Z,11.30
2018-01-25T17:05:01.495Z,14.35
2018-01-25T17:07:35.970Z,12.13
2018-01-25T17:10:10.510Z,16.50
2018-01-25T17:12:45.065Z,18.83
2018-01-25T17:15:19.658Z,17.33
2018-01-25T17:17:54.275Z,16.67
2018-01-25T17:20:28.761Z,18.17
2018-01-25T17:23:03.311Z,19.23
2018-01-25T17:25:39.080Z,25.40
2018-01-25T17:28:14.389Z,19.15
2018-01-25T17:30:48.890Z,19.37
2018-01-25T17:33:24.385Z,17.95
2018-01-25T17:35:58.941Z,15.82
2018-01-25T17:38:33.275Z,11.63
2018-01-25T17:41:07.849Z,18.67
2018-01-25T17:43:42.365Z,12.77
2018-01-25T17:46:16.866Z,14.43
2018-01-25T17:48:51.360Z,17.45
2018-01-25T17:51:25.970Z,19.48
2018-01-25T17:54:00.597Z,20.65
2018-01-25T17:56:35.205Z,17.27
2018-01-25T17:59:09.791Z,19.75
2018-01-25T18:01:44.196Z,22.98
2018-01-25T18:04:19.480Z,22.23
2018-01-25T18:06:55.008Z,19.98
2018-01-25T18:09:29.620Z,19.27
2018-01-25T18:12:04.126Z,18.55
2018-01-25T18:14:38.853Z,15.10
2018-01-25T18:17:13.225Z,14.25
2018-01-25T18:19:47.713Z,15.10
2018-01-25T18:22:22.137Z,19.58
2018-01-25T18:24:56.811Z,14.35
2018-01-25T18:27:31.381Z,20.33
2018-01-25T18:30:05.885Z,15.93
2018-01-25T18:32:40.233Z,21.87
2018-01-25T18:35:14.685Z,18.98
2018-01-25T18:37:49.269Z,15.95
2018-01-25T18:40:23.794Z,23.95
2018-01-25T18:42:58.325Z,21.20
2018-01-25T18:45:32.789Z,22.13
2018-01-25T18:48:08.029Z,26.98
2018-01-25T18:50:42.547Z,20.42
2018-01-25T18:53:17.808Z,25.40
2018-01-25T18:55:52.193Z,20.37
2018-01-25T18:58:26.574Z,24.02
2018-01-25T19:01:01.994Z,20.05
2018-01-25T19:03:38.054Z,26.77
2018-01-25T19:06:12.427Z,21.73
2018-01-25T19:08:47.705Z,24.73
2018-01-25T19:11:22.129Z,22.35
2018-01-25T19:13:56.606Z,25.37
2018-01-25T19:16:31.081Z,28.38
2018-01-25T19:19:07.138Z,25.02
2018-01-25T19:21:41.497Z,27.23
2018-01-25T19:24:16.021Z,24.25
2018-01-25T19:26:51.297Z,26.95
2018-01-25T19:29:26.376Z,26.58
2018-01-25T19:32:02.822Z,23.73
2018-01-25T19:34:37.208Z,28.05
2018-01-25T19:37:12.435Z,23.80
2018-01-25T19:39:46.794Z,23.48
2018-01-25T19:42:21.301Z,25.40
2018-01-25T19:44:55.833Z,24.15
2018-01-25T19:47:30.327Z,27.25
2018-01-25T19:50:04.863Z,25.50
2018-01-25T19:52:39.336Z,24.15
2018-01-25T19:55:13.764Z,21.83
2018-01-25T19:57:48.270Z,31.15
2018-01-25T20:00:22.796Z,25.23
2018-01-25T20:02:57.403Z,29.50
2018-01-25T20:05:31.922Z,24.85
2018-01-25T20:08:06.422Z,26.70
2018-01-25T20:10:40.838Z,27.00
2018-01-25T20:13:15.266Z,29.48
2018-01-25T20:15:50.510Z,29.37
2018-01-25T20:18:24.891Z,27.37
2018-01-25T20:20:59.300Z,27.92
2018-01-25T20:23:34.554Z,30.65
2018-01-25T20:26:09.094Z,25.15
2018-01-25T20:28:43.568Z,30.77
2018-01-25T20:31:18.186Z,27.75
2018-01-25T20:33:52.675Z,26.02
2018-01-25T20:36:27.148Z,31.70
2018-01-25T20:39:01.553Z,28.83
2018-01-25T20:41:36.142Z,34.38
2018-01-25T20:44:10.665Z,30.90
2018-01-25T20:46:45.222Z,27.50
2018-01-25T20:49:19.913Z,29.45
2018-01-25T20:51:54.484Z,28.85
2018-01-25T20:54:29.067Z,31.98
2018-01-25T20:57:03.557Z,27.15
2018-01-25T20:59:38.005Z,29.50
2018-01-25T21:02:12.577Z,35.92
2018-01-25T21:04:47.133Z,28.10
2018-01-25T21:07:21.648Z,32.97
2018-01-25T21:09:56.229Z,35.97
2018-01-25T21:12:30.669Z,24.95
2018-01-25T21:15:05.145Z,31.02
2018-01-25T21:17:39.646Z,30.40
2018-01-25T21:20:14.336Z,36.63
2018-01-25T21:22:49.603Z,32.13
2018-01-25T21:25:24.464Z,32.83
2018-01-25T21:27:59.764Z,36.83
2018-01-25T21:30:34.274Z,28.77
2018-01-25T21:33:08.768Z,30.83
2018-01-25T21:35:43.282Z,30.77
2018-01-25T21:38:17.774Z,29.17
2018-01-25T21:40:52.425Z,34.65
2018-01-25T21:43:26.759Z,31.58
2018-01-25T21:46:01.639Z,34.10
2018-01-25T21:48:36.147Z,35.85
2018-01-25T21:51:10.675Z,35.03
2018-01-25T21:53:45.192Z,41.70
2018-01-25T21:56:19.589Z,37.58
2018-01-25T21:58:54.125Z,37.20
2018-01-25T22:01:28.684Z,39.70
2018-01-25T22:04:03.352Z,32.72
2018-01-25T22:06:37.800Z,39.42
2018-01-25T22:09:12.211Z,33.00
2018-01-25T22:11:47.329Z,33.15
2018-01-25T22:14:21.867Z,33.78
2018-01-25T22:16:56.502Z,34.50
2018-01-25T22:19:31.193Z,38.22
2018-01-25T22:22:05.552Z,36.47
2018-01-25T22:24:40.147Z,34.50
2018-01-25T22:27:14.674Z,38.08
2018-01-25T22:29:49.176Z,35.55
2018-01-25T22:32:23.720Z,38.35
2018-01-25T22:34:58.176Z,40.88
2018-01-25T22:37:33.191Z,34.97
2018-01-25T22:40:08.595Z,41.20
2018-01-25T22:42:42.975Z,45.33
2018-01-25T22:45:17.527Z,36.60
2018-01-25T22:47:51.886Z,38.63
2018-01-25T22:50:26.401Z,36.17
2018-01-25T22:53:00.803Z,37.70
2018-01-25T22:55:35.716Z,38.53
2018-01-25T22:58:10.084Z,40.35
2018-01-25T23:00:44.622Z,38.10
2018-01-25T23:03:18.981Z,33.25
2018-01-25T23:05:53.546Z,33.40
2018-01-25T23:08:28.142Z,39.70
2018-01-25T23:11:02.567Z,45.45
2018-01-25T23:13:37.170Z,43.87
2018-01-25T23:16:11.692Z,43.67
2018-01-25T23:18:46.186Z,44.03
2018-01-25T23:21:20.678Z,36.85
2018-01-25T23:23:55.198Z,39.90
2018-01-25T23:26:29.731Z,39.72
2018-01-25T23:29:04.031Z,35.85
2018-01-25T23:31:38.593Z,43.05
2018-01-25T23:34:13.088Z,41.63
2018-01-25T23:36:47.733Z,37.30
2018-01-25T23:39:22.239Z,37.03
2018-01-25T23:41:56.624Z,42.03
2018-01-25T23:44:31.880Z,40.92
2018-01-25T23:47:06.383Z,36.78
2018-01-25T23:49:40.840Z,42.40
2018-01-25T23:52:15.315Z,40.00
2018-01-25T23:54:49.746Z,48.72
2018-01-25T23:57:24.347Z,38.08
2018-01-25T23:59:58.913Z,41.17
